sensor_id;sensor_type;location;lat;lon;timestamp;P1;durP1;ratioP1;P2;durP2;ratioP2
8564;SDS011;4320;51.498;6.556;2023-12-22T00:01:08;8.90;;;1.83;;
8564;SDS011;4320;51.498;6.556;2023-12-22T00:03:34;7.10;;;2.38;;
8564;SDS011;4320;51.498;6.556;2023-12-22T00:05:59;7.18;;;2.42;;
8564;SDS011;4320;51.498;6.556;2023-12-22T00:08:25;6.55;;;1.98;;
8564;SDS011;4320;51.498;6.556;2023-12-22T00:10:51;6.55;;;1.95;;
8564;SDS011;4320;51.498;6.556;2023-12-22T00:13:16;3.90;;;1.50;;
8564;SDS011;4320;51.498;6.556;2023-12-22T00:15:42;10.90;;;3.20;;
8564;SDS011;4320;51.498;6.556;2023-12-22T00:18:08;9.00;;;3.33;;
8564;SDS011;4320;51.498;6.556;2023-12-22T00:20:34;10.75;;;3.22;;
8564;SDS011;4320;51.498;6.556;2023-12-22T00:22:59;9.48;;;2.50;;
8564;SDS011;4320;51.498;6.556;2023-12-22T00:25:25;7.75;;;2.83;;
8564;SDS011;4320;51.498;6.556;2023-12-22T00:27:50;8.60;;;2.35;;
8564;SDS011;4320;51.498;6.556;2023-12-22T00:30:16;6.38;;;2.45;;
8564;SDS011;4320;51.498;6.556;2023-12-22T00:32:42;8.52;;;2.20;;
8564;SDS011;4320;51.498;6.556;2023-12-22T00:35:08;9.13;;;2.63;;
8564;SDS011;4320;51.498;6.556;2023-12-22T00:37:33;11.73;;;2.53;;
8564;SDS011;4320;51.498;6.556;2023-12-22T00:39:59;7.10;;;2.55;;
8564;SDS011;4320;51.498;6.556;2023-12-22T00:42:24;11.35;;;2.47;;
8564;SDS011;4320;51.498;6.556;2023-12-22T00:44:51;4.13;;;2.20;;
8564;SDS011;4320;51.498;6.556;2023-12-22T00:47:16;6.28;;;2.30;;
8564;SDS011;4320;51.498;6.556;2023-12-22T00:49:42;10.00;;;2.20;;
8564;SDS011;4320;51.498;6.556;2023-12-22T00:52:08;10.25;;;2.35;;
8564;SDS011;4320;51.498;6.556;2023-12-22T00:54:34;10.52;;;2.25;;
8564;SDS011;4320;51.498;6.556;2023-12-22T00:56:59;6.90;;;2.30;;
8564;SDS011;4320;51.498;6.556;2023-12-22T00:59:25;6.90;;;2.05;;
8564;SDS011;4320;51.498;6.556;2023-12-22T01:01:50;4.78;;;1.67;;
8564;SDS011;4320;51.498;6.556;2023-12-22T01:04:16;7.72;;;1.75;;
8564;SDS011;4320;51.498;6.556;2023-12-22T01:06:42;9.10;;;1.98;;
8564;SDS011;4320;51.498;6.556;2023-12-22T01:09:07;7.28;;;2.47;;
8564;SDS011;4320;51.498;6.556;2023-12-22T01:11:33;6.65;;;2.30;;
8564;SDS011;4320;51.498;6.556;2023-12-22T01:13:58;8.95;;;2.72;;
8564;SDS011;4320;51.498;6.556;2023-12-22T01:16:24;7.32;;;2.45;;
8564;SDS011;4320;51.498;6.556;2023-12-22T01:18:50;10.35;;;2.67;;
8564;SDS011;4320;51.498;6.556;2023-12-22T01:21:16;16.33;;;2.90;;
8564;SDS011;4320;51.498;6.556;2023-12-22T01:23:42;7.57;;;2.58;;
8564;SDS011;4320;51.498;6.556;2023-12-22T01:26:08;6.43;;;3.22;;
8564;SDS011;4320;51.498;6.556;2023-12-22T01:28:33;10.48;;;3.20;;
8564;SDS011;4320;51.498;6.556;2023-12-22T01:31:00;9.88;;;2.80;;
8564;SDS011;4320;51.498;6.556;2023-12-22T01:33:26;7.18;;;1.80;;
8564;SDS011;4320;51.498;6.556;2023-12-22T01:35:51;8.90;;;2.40;;
8564;SDS011;4320;51.498;6.556;2023-12-22T01:38:17;6.10;;;1.85;;
8564;SDS011;4320;51.498;6.556;2023-12-22T01:40:42;5.85;;;1.70;;
8564;SDS011;4320;51.498;6.556;2023-12-22T01:43:08;9.40;;;2.70;;
8564;SDS011;4320;51.498;6.556;2023-12-22T01:45:34;6.78;;;1.85;;
8564;SDS011;4320;51.498;6.556;2023-12-22T01:48:00;2.65;;;1.25;;
8564;SDS011;4320;51.498;6.556;2023-12-22T01:50:27;4.70;;;1.38;;
8564;SDS011;4320;51.498;6.556;2023-12-22T01:52:53;2.85;;;1.20;;
8564;SDS011;4320;51.498;6.556;2023-12-22T01:55:19;3.63;;;1.33;;
8564;SDS011;4320;51.498;6.556;2023-12-22T01:57:46;5.43;;;1.50;;
8564;SDS011;4320;51.498;6.556;2023-12-22T02:00:12;4.00;;;1.40;;
8564;SDS011;4320;51.498;6.556;2023-12-22T02:02:39;4.22;;;1.42;;
8564;SDS011;4320;51.498;6.556;2023-12-22T02:05:08;6.22;;;1.70;;
8564;SDS011;4320;51.498;6.556;2023-12-22T02:07:36;6.60;;;1.60;;
8564;SDS011;4320;51.498;6.556;2023-12-22T02:10:09;9.07;;;2.45;;
8564;SDS011;4320;51.498;6.556;2023-12-22T02:12:36;8.73;;;2.38;;
8564;SDS011;4320;51.498;6.556;2023-12-22T02:15:02;5.97;;;1.50;;
8564;SDS011;4320;51.498;6.556;2023-12-22T02:17:33;10.43;;;1.92;;
8564;SDS011;4320;51.498;6.556;2023-12-22T02:20:14;8.20;;;1.70;;
8564;SDS011;4320;51.498;6.556;2023-12-22T02:22:40;6.45;;;1.75;;
8564;SDS011;4320;51.498;6.556;2023-12-22T02:25:05;4.70;;;1.98;;
8564;SDS011;4320;51.498;6.556;2023-12-22T02:30:11;4.95;;;1.63;;
8564;SDS011;4320;51.498;6.556;2023-12-22T02:32:40;9.23;;;1.73;;
8564;SDS011;4320;51.498;6.556;2023-12-22T02:35:11;4.32;;;1.77;;
8564;SDS011;4320;51.498;6.556;2023-12-22T02:37:41;7.53;;;2.05;;
8564;SDS011;4320;51.498;6.556;2023-12-22T02:40:09;3.85;;;1.45;;
8564;SDS011;4320;51.498;6.556;2023-12-22T02:42:35;5.50;;;1.95;;
8564;SDS011;4320;51.498;6.556;2023-12-22T02:45:03;5.18;;;1.80;;
8564;SDS011;4320;51.498;6.556;2023-12-22T02:47:30;4.65;;;1.63;;
8564;SDS011;4320;51.498;6.556;2023-12-22T02:49:57;6.15;;;1.92;;
8564;SDS011;4320;51.498;6.556;2023-12-22T02:52:22;9.77;;;2.05;;
8564;SDS011;4320;51.498;6.556;2023-12-22T02:54:48;3.28;;;1.42;;
8564;SDS011;4320;51.498;6.556;2023-12-22T02:57:14;6.55;;;1.88;;
8564;SDS011;4320;51.498;6.556;2023-12-22T02:59:39;9.60;;;1.80;;
8564;SDS011;4320;51.498;6.556;2023-12-22T03:02:05;7.43;;;2.58;;
8564;SDS011;4320;51.498;6.556;2023-12-22T03:04:31;5.50;;;1.95;;
8564;SDS011;4320;51.498;6.556;2023-12-22T03:06:56;9.55;;;2.35;;
8564;SDS011;4320;51.498;6.556;2023-12-22T03:09:22;5.32;;;1.95;;
8564;SDS011;4320;51.498;6.556;2023-12-22T03:11:48;18.27;;;2.28;;
8564;SDS011;4320;51.498;6.556;2023-12-22T03:14:14;7.60;;;2.17;;
8564;SDS011;4320;51.498;6.556;2023-12-22T03:16:39;8.15;;;2.03;;
8564;SDS011;4320;51.498;6.556;2023-12-22T03:19:06;8.35;;;2.13;;
8564;SDS011;4320;51.498;6.556;2023-12-22T03:21:32;8.82;;;2.13;;
8564;SDS011;4320;51.498;6.556;2023-12-22T03:23:57;4.85;;;1.65;;
8564;SDS011;4320;51.498;6.556;2023-12-22T03:26:23;5.82;;;2.30;;
8564;SDS011;4320;51.498;6.556;2023-12-22T03:28:51;8.35;;;2.20;;
8564;SDS011;4320;51.498;6.556;2023-12-22T03:31:16;12.20;;;2.25;;
8564;SDS011;4320;51.498;6.556;2023-12-22T03:33:42;9.70;;;1.92;;
8564;SDS011;4320;51.498;6.556;2023-12-22T03:36:07;6.20;;;1.98;;
8564;SDS011;4320;51.498;6.556;2023-12-22T03:38:33;9.57;;;2.42;;
8564;SDS011;4320;51.498;6.556;2023-12-22T03:40:59;9.52;;;2.20;;
8564;SDS011;4320;51.498;6.556;2023-12-22T03:43:24;9.40;;;1.80;;
8564;SDS011;4320;51.498;6.556;2023-12-22T03:45:50;10.88;;;2.47;;
8564;SDS011;4320;51.498;6.556;2023-12-22T03:48:15;14.95;;;2.58;;
8564;SDS011;4320;51.498;6.556;2023-12-22T03:50:41;7.68;;;2.20;;
8564;SDS011;4320;51.498;6.556;2023-12-22T03:53:07;11.02;;;2.33;;
8564;SDS011;4320;51.498;6.556;2023-12-22T03:55:32;8.73;;;2.75;;
8564;SDS011;4320;51.498;6.556;2023-12-22T03:57:58;6.10;;;2.25;;
8564;SDS011;4320;51.498;6.556;2023-12-22T04:00:23;9.05;;;2.78;;
8564;SDS011;4320;51.498;6.556;2023-12-22T04:02:49;10.82;;;2.70;;
8564;SDS011;4320;51.498;6.556;2023-12-22T04:05:14;12.43;;;2.80;;
8564;SDS011;4320;51.498;6.556;2023-12-22T04:07:40;10.35;;;2.65;;
8564;SDS011;4320;51.498;6.556;2023-12-22T04:10:06;13.80;;;2.60;;
8564;SDS011;4320;51.498;6.556;2023-12-22T04:12:32;11.68;;;2.90;;
8564;SDS011;4320;51.498;6.556;2023-12-22T04:14:57;12.30;;;2.88;;
8564;SDS011;4320;51.498;6.556;2023-12-22T04:17:23;16.10;;;2.65;;
8564;SDS011;4320;51.498;6.556;2023-12-22T04:19:48;11.52;;;2.30;;
8564;SDS011;4320;51.498;6.556;2023-12-22T04:22:14;14.88;;;2.75;;
8564;SDS011;4320;51.498;6.556;2023-12-22T04:24:40;8.38;;;3.25;;
8564;SDS011;4320;51.498;6.556;2023-12-22T04:27:05;10.80;;;2.47;;
8564;SDS011;4320;51.498;6.556;2023-12-22T04:29:31;11.07;;;3.40;;
8564;SDS011;4320;51.498;6.556;2023-12-22T04:31:57;12.80;;;3.22;;
8564;SDS011;4320;51.498;6.556;2023-12-22T04:34:22;13.95;;;2.88;;
8564;SDS011;4320;51.498;6.556;2023-12-22T04:36:48;14.80;;;3.13;;
8564;SDS011;4320;51.498;6.556;2023-12-22T04:39:13;10.25;;;2.70;;
8564;SDS011;4320;51.498;6.556;2023-12-22T04:41:39;14.18;;;2.78;;
8564;SDS011;4320;51.498;6.556;2023-12-22T04:44:04;19.13;;;3.00;;
8564;SDS011;4320;51.498;6.556;2023-12-22T04:46:30;14.00;;;2.88;;
8564;SDS011;4320;51.498;6.556;2023-12-22T04:48:56;17.13;;;3.60;;
8564;SDS011;4320;51.498;6.556;2023-12-22T04:51:22;15.15;;;3.13;;
8564;SDS011;4320;51.498;6.556;2023-12-22T04:53:48;20.25;;;3.17;;
8564;SDS011;4320;51.498;6.556;2023-12-22T04:56:13;15.32;;;2.97;;
8564;SDS011;4320;51.498;6.556;2023-12-22T04:58:39;10.77;;;3.47;;
8564;SDS011;4320;51.498;6.556;2023-12-22T05:01:04;13.43;;;4.32;;
8564;SDS011;4320;51.498;6.556;2023-12-22T05:03:30;11.15;;;2.70;;
8564;SDS011;4320;51.498;6.556;2023-12-22T05:05:56;9.88;;;2.50;;
8564;SDS011;4320;51.498;6.556;2023-12-22T05:08:21;9.52;;;1.98;;
8564;SDS011;4320;51.498;6.556;2023-12-22T05:10:47;8.95;;;1.75;;
8564;SDS011;4320;51.498;6.556;2023-12-22T05:13:13;7.28;;;1.80;;
8564;SDS011;4320;51.498;6.556;2023-12-22T05:15:38;5.43;;;1.48;;
8564;SDS011;4320;51.498;6.556;2023-12-22T05:18:04;7.13;;;2.00;;
8564;SDS011;4320;51.498;6.556;2023-12-22T05:20:29;5.35;;;1.50;;
8564;SDS011;4320;51.498;6.556;2023-12-22T05:22:55;8.90;;;1.92;;
8564;SDS011;4320;51.498;6.556;2023-12-22T05:25:21;5.63;;;2.10;;
8564;SDS011;4320;51.498;6.556;2023-12-22T05:27:46;5.93;;;1.95;;
8564;SDS011;4320;51.498;6.556;2023-12-22T05:30:12;9.15;;;1.73;;
8564;SDS011;4320;51.498;6.556;2023-12-22T05:32:38;6.10;;;1.65;;
8564;SDS011;4320;51.498;6.556;2023-12-22T05:35:04;7.30;;;1.88;;
8564;SDS011;4320;51.498;6.556;2023-12-22T05:37:30;6.03;;;1.90;;
8564;SDS011;4320;51.498;6.556;2023-12-22T05:39:55;5.05;;;2.20;;
8564;SDS011;4320;51.498;6.556;2023-12-22T05:42:21;8.40;;;2.80;;
8564;SDS011;4320;51.498;6.556;2023-12-22T05:44:46;12.55;;;2.65;;
8564;SDS011;4320;51.498;6.556;2023-12-22T05:47:15;9.32;;;2.40;;
8564;SDS011;4320;51.498;6.556;2023-12-22T05:49:41;8.50;;;2.35;;
8564;SDS011;4320;51.498;6.556;2023-12-22T05:52:06;9.02;;;2.10;;
8564;SDS011;4320;51.498;6.556;2023-12-22T05:54:34;6.43;;;2.35;;
8564;SDS011;4320;51.498;6.556;2023-12-22T05:57:00;6.70;;;2.70;;
8564;SDS011;4320;51.498;6.556;2023-12-22T05:59:26;8.23;;;2.35;;
8564;SDS011;4320;51.498;6.556;2023-12-22T06:01:53;9.15;;;2.30;;
8564;SDS011;4320;51.498;6.556;2023-12-22T06:04:19;20.45;;;3.78;;
8564;SDS011;4320;51.498;6.556;2023-12-22T06:06:44;9.68;;;2.95;;
8564;SDS011;4320;51.498;6.556;2023-12-22T06:09:10;10.98;;;2.70;;
8564;SDS011;4320;51.498;6.556;2023-12-22T06:11:38;9.70;;;2.75;;
8564;SDS011;4320;51.498;6.556;2023-12-22T06:14:04;9.65;;;3.38;;
8564;SDS011;4320;51.498;6.556;2023-12-22T06:16:30;12.77;;;3.20;;
8564;SDS011;4320;51.498;6.556;2023-12-22T06:18:56;10.80;;;3.15;;
8564;SDS011;4320;51.498;6.556;2023-12-22T06:21:22;12.50;;;2.67;;
8564;SDS011;4320;51.498;6.556;2023-12-22T06:23:47;10.38;;;2.55;;
8564;SDS011;4320;51.498;6.556;2023-12-22T06:26:13;12.85;;;3.00;;
8564;SDS011;4320;51.498;6.556;2023-12-22T06:28:39;8.68;;;2.35;;
8564;SDS011;4320;51.498;6.556;2023-12-22T06:31:05;15.40;;;3.17;;
8564;SDS011;4320;51.498;6.556;2023-12-22T06:33:31;9.70;;;3.15;;
8564;SDS011;4320;51.498;6.556;2023-12-22T06:35:57;13.32;;;2.80;;
8564;SDS011;4320;51.498;6.556;2023-12-22T06:38:22;16.90;;;3.05;;
8564;SDS011;4320;51.498;6.556;2023-12-22T06:40:48;17.85;;;3.45;;
8564;SDS011;4320;51.498;6.556;2023-12-22T06:43:14;12.07;;;3.53;;
8564;SDS011;4320;51.498;6.556;2023-12-22T06:45:40;15.70;;;3.67;;
8564;SDS011;4320;51.498;6.556;2023-12-22T06:48:06;7.47;;;2.60;;
8564;SDS011;4320;51.498;6.556;2023-12-22T06:50:32;8.75;;;2.95;;
8564;SDS011;4320;51.498;6.556;2023-12-22T06:52:58;12.23;;;2.90;;
8564;SDS011;4320;51.498;6.556;2023-12-22T06:55:24;16.90;;;3.25;;
8564;SDS011;4320;51.498;6.556;2023-12-22T06:57:49;7.68;;;2.25;;
8564;SDS011;4320;51.498;6.556;2023-12-22T07:00:15;8.88;;;2.10;;
8564;SDS011;4320;51.498;6.556;2023-12-22T07:02:41;10.50;;;2.53;;
8564;SDS011;4320;51.498;6.556;2023-12-22T07:07:46;10.25;;;2.25;;
8564;SDS011;4320;51.498;6.556;2023-12-22T07:10:11;8.32;;;2.33;;
8564;SDS011;4320;51.498;6.556;2023-12-22T07:12:37;7.13;;;2.08;;
8564;SDS011;4320;51.498;6.556;2023-12-22T07:15:04;7.47;;;2.47;;
8564;SDS011;4320;51.498;6.556;2023-12-22T07:17:33;8.95;;;2.90;;
8564;SDS011;4320;51.498;6.556;2023-12-22T07:19:59;7.32;;;2.22;;
8564;SDS011;4320;51.498;6.556;2023-12-22T07:22:28;9.15;;;2.60;;
8564;SDS011;4320;51.498;6.556;2023-12-22T07:24:54;5.93;;;2.80;;
8564;SDS011;4320;51.498;6.556;2023-12-22T07:27:20;13.52;;;3.00;;
8564;SDS011;4320;51.498;6.556;2023-12-22T07:29:46;7.68;;;3.20;;
8564;SDS011;4320;51.498;6.556;2023-12-22T07:32:12;11.15;;;3.40;;
8564;SDS011;4320;51.498;6.556;2023-12-22T07:34:37;11.00;;;2.80;;
8564;SDS011;4320;51.498;6.556;2023-12-22T07:37:03;9.90;;;2.88;;
8564;SDS011;4320;51.498;6.556;2023-12-22T07:39:29;21.90;;;3.50;;
8564;SDS011;4320;51.498;6.556;2023-12-22T07:41:55;13.50;;;3.78;;
8564;SDS011;4320;51.498;6.556;2023-12-22T07:44:21;14.15;;;4.50;;
8564;SDS011;4320;51.498;6.556;2023-12-22T07:46:55;13.95;;;3.67;;
8564;SDS011;4320;51.498;6.556;2023-12-22T07:49:22;13.60;;;4.00;;
8564;SDS011;4320;51.498;6.556;2023-12-22T07:51:48;14.95;;;3.90;;
8564;SDS011;4320;51.498;6.556;2023-12-22T07:54:16;14.90;;;4.07;;
8564;SDS011;4320;51.498;6.556;2023-12-22T07:56:42;26.77;;;4.28;;
8564;SDS011;4320;51.498;6.556;2023-12-22T07:59:08;16.58;;;3.42;;
8564;SDS011;4320;51.498;6.556;2023-12-22T08:01:33;17.52;;;4.20;;
8564;SDS011;4320;51.498;6.556;2023-12-22T08:03:59;17.80;;;4.70;;
8564;SDS011;4320;51.498;6.556;2023-12-22T08:06:24;16.58;;;4.30;;
8564;SDS011;4320;51.498;6.556;2023-12-22T08:08:50;20.83;;;5.15;;
8564;SDS011;4320;51.498;6.556;2023-12-22T08:11:15;18.95;;;5.13;;
8564;SDS011;4320;51.498;6.556;2023-12-22T08:13:41;20.02;;;5.38;;
8564;SDS011;4320;51.498;6.556;2023-12-22T08:16:07;22.58;;;5.18;;
8564;SDS011;4320;51.498;6.556;2023-12-22T08:18:32;24.08;;;4.72;;
8564;SDS011;4320;51.498;6.556;2023-12-22T08:20:58;25.20;;;5.00;;
8564;SDS011;4320;51.498;6.556;2023-12-22T08:23:23;24.20;;;4.97;;
8564;SDS011;4320;51.498;6.556;2023-12-22T08:25:49;14.27;;;4.80;;
8564;SDS011;4320;51.498;6.556;2023-12-22T08:28:15;25.23;;;6.88;;
8564;SDS011;4320;51.498;6.556;2023-12-22T08:30:40;20.85;;;5.65;;
8564;SDS011;4320;51.498;6.556;2023-12-22T08:33:06;21.05;;;5.20;;
8564;SDS011;4320;51.498;6.556;2023-12-22T08:35:31;21.45;;;5.07;;
8564;SDS011;4320;51.498;6.556;2023-12-22T08:37:57;18.42;;;5.25;;
8564;SDS011;4320;51.498;6.556;2023-12-22T08:40:23;26.05;;;5.53;;
8564;SDS011;4320;51.498;6.556;2023-12-22T08:42:51;18.92;;;5.30;;
8564;SDS011;4320;51.498;6.556;2023-12-22T08:45:19;26.02;;;5.85;;
8564;SDS011;4320;51.498;6.556;2023-12-22T08:47:46;32.47;;;6.00;;
8564;SDS011;4320;51.498;6.556;2023-12-22T08:50:12;21.25;;;5.22;;
8564;SDS011;4320;51.498;6.556;2023-12-22T08:52:38;22.45;;;5.07;;
8564;SDS011;4320;51.498;6.556;2023-12-22T08:55:04;19.73;;;5.65;;
8564;SDS011;4320;51.498;6.556;2023-12-22T08:57:30;25.77;;;5.75;;
8564;SDS011;4320;51.498;6.556;2023-12-22T08:59:56;31.88;;;5.57;;
8564;SDS011;4320;51.498;6.556;2023-12-22T09:02:22;21.02;;;5.45;;
8564;SDS011;4320;51.498;6.556;2023-12-22T09:04:48;25.17;;;6.07;;
8564;SDS011;4320;51.498;6.556;2023-12-22T09:07:13;21.35;;;5.47;;
8564;SDS011;4320;51.498;6.556;2023-12-22T09:09:39;26.30;;;4.85;;
8564;SDS011;4320;51.498;6.556;2023-12-22T09:12:05;30.02;;;6.03;;
8564;SDS011;4320;51.498;6.556;2023-12-22T09:14:31;23.20;;;4.85;;
8564;SDS011;4320;51.498;6.556;2023-12-22T09:16:56;17.08;;;5.45;;
8564;SDS011;4320;51.498;6.556;2023-12-22T09:19:22;28.17;;;5.90;;
8564;SDS011;4320;51.498;6.556;2023-12-22T09:21:48;23.52;;;5.70;;
8564;SDS011;4320;51.498;6.556;2023-12-22T09:24:13;22.52;;;5.43;;
8564;SDS011;4320;51.498;6.556;2023-12-22T09:26:41;19.00;;;5.05;;
8564;SDS011;4320;51.498;6.556;2023-12-22T09:29:07;23.08;;;4.97;;
8564;SDS011;4320;51.498;6.556;2023-12-22T09:31:32;23.38;;;6.50;;
8564;SDS011;4320;51.498;6.556;2023-12-22T09:33:58;20.90;;;5.57;;
8564;SDS011;4320;51.498;6.556;2023-12-22T09:36:23;23.50;;;5.20;;
8564;SDS011;4320;51.498;6.556;2023-12-22T09:38:49;22.60;;;5.32;;
8564;SDS011;4320;51.498;6.556;2023-12-22T09:41:14;28.40;;;5.20;;
8564;SDS011;4320;51.498;6.556;2023-12-22T09:43:40;29.83;;;5.68;;
8564;SDS011;4320;51.498;6.556;2023-12-22T09:46:09;23.42;;;4.78;;
8564;SDS011;4320;51.498;6.556;2023-12-22T09:48:36;24.25;;;5.25;;
8564;SDS011;4320;51.498;6.556;2023-12-22T09:51:04;13.52;;;3.78;;
8564;SDS011;4320;51.498;6.556;2023-12-22T09:53:32;15.02;;;3.35;;
8564;SDS011;4320;51.498;6.556;2023-12-22T09:55:59;17.58;;;3.90;;
8564;SDS011;4320;51.498;6.556;2023-12-22T09:58:26;11.15;;;3.25;;
8564;SDS011;4320;51.498;6.556;2023-12-22T10:00:51;21.17;;;3.45;;
8564;SDS011;4320;51.498;6.556;2023-12-22T10:03:18;15.80;;;3.05;;
8564;SDS011;4320;51.498;6.556;2023-12-22T10:05:45;12.48;;;3.25;;
8564;SDS011;4320;51.498;6.556;2023-12-22T10:08:11;10.52;;;3.35;;
8564;SDS011;4320;51.498;6.556;2023-12-22T10:10:39;7.10;;;3.20;;
8564;SDS011;4320;51.498;6.556;2023-12-22T10:13:05;11.02;;;3.80;;
8564;SDS011;4320;51.498;6.556;2023-12-22T10:15:34;8.57;;;2.67;;
8564;SDS011;4320;51.498;6.556;2023-12-22T10:18:03;10.02;;;3.15;;
8564;SDS011;4320;51.498;6.556;2023-12-22T10:20:28;10.50;;;3.08;;
8564;SDS011;4320;51.498;6.556;2023-12-22T10:22:54;10.98;;;2.92;;
8564;SDS011;4320;51.498;6.556;2023-12-22T10:25:20;11.55;;;3.00;;
8564;SDS011;4320;51.498;6.556;2023-12-22T10:27:52;8.63;;;2.80;;
8564;SDS011;4320;51.498;6.556;2023-12-22T10:30:18;8.00;;;2.60;;
8564;SDS011;4320;51.498;6.556;2023-12-22T10:32:45;6.85;;;2.30;;
8564;SDS011;4320;51.498;6.556;2023-12-22T10:35:10;5.40;;;2.33;;
8564;SDS011;4320;51.498;6.556;2023-12-22T10:37:37;8.75;;;2.72;;
8564;SDS011;4320;51.498;6.556;2023-12-22T10:40:06;6.20;;;2.10;;
8564;SDS011;4320;51.498;6.556;2023-12-22T10:42:33;9.15;;;1.92;;
8564;SDS011;4320;51.498;6.556;2023-12-22T10:45:00;2.63;;;1.90;;
8564;SDS011;4320;51.498;6.556;2023-12-22T10:47:27;7.72;;;2.35;;
8564;SDS011;4320;51.498;6.556;2023-12-22T10:49:53;5.15;;;2.03;;
8564;SDS011;4320;51.498;6.556;2023-12-22T10:52:19;6.55;;;2.20;;
8564;SDS011;4320;51.498;6.556;2023-12-22T10:54:45;10.13;;;2.63;;
8564;SDS011;4320;51.498;6.556;2023-12-22T10:57:12;6.68;;;2.50;;
8564;SDS011;4320;51.498;6.556;2023-12-22T10:59:45;6.45;;;2.55;;
8564;SDS011;4320;51.498;6.556;2023-12-22T11:02:15;8.30;;;2.35;;
8564;SDS011;4320;51.498;6.556;2023-12-22T11:04:47;6.25;;;2.22;;
8564;SDS011;4320;51.498;6.556;2023-12-22T11:07:20;6.80;;;2.53;;
8564;SDS011;4320;51.498;6.556;2023-12-22T11:09:49;6.78;;;2.40;;
8564;SDS011;4320;51.498;6.556;2023-12-22T11:12:18;7.03;;;2.83;;
8564;SDS011;4320;51.498;6.556;2023-12-22T11:14:45;6.88;;;2.03;;
8564;SDS011;4320;51.498;6.556;2023-12-22T11:17:16;3.92;;;2.13;;
8564;SDS011;4320;51.498;6.556;2023-12-22T11:19:47;10.20;;;2.22;;
8564;SDS011;4320;51.498;6.556;2023-12-22T11:22:18;3.92;;;1.70;;
8564;SDS011;4320;51.498;6.556;2023-12-22T11:24:46;5.80;;;2.10;;
8564;SDS011;4320;51.498;6.556;2023-12-22T11:27:13;4.95;;;2.00;;
8564;SDS011;4320;51.498;6.556;2023-12-22T11:29:44;5.63;;;1.70;;
8564;SDS011;4320;51.498;6.556;2023-12-22T11:32:15;3.03;;;1.80;;
8564;SDS011;4320;51.498;6.556;2023-12-22T11:34:41;4.72;;;1.98;;
8564;SDS011;4320;51.498;6.556;2023-12-22T11:37:10;9.35;;;1.90;;
8564;SDS011;4320;51.498;6.556;2023-12-22T11:39:37;4.13;;;1.88;;
8564;SDS011;4320;51.498;6.556;2023-12-22T11:42:04;4.03;;;1.83;;
8564;SDS011;4320;51.498;6.556;2023-12-22T11:44:32;6.80;;;2.03;;
8564;SDS011;4320;51.498;6.556;2023-12-22T11:47:07;2.90;;;1.88;;
8564;SDS011;4320;51.498;6.556;2023-12-22T11:49:34;4.72;;;1.92;;
8564;SDS011;4320;51.498;6.556;2023-12-22T11:52:14;5.75;;;1.95;;
8564;SDS011;4320;51.498;6.556;2023-12-22T11:59:57;7.50;;;1.60;;
8564;SDS011;4320;51.498;6.556;2023-12-22T12:02:26;7.13;;;1.98;;
8564;SDS011;4320;51.498;6.556;2023-12-22T12:04:52;3.22;;;1.60;;
8564;SDS011;4320;51.498;6.556;2023-12-22T12:10:04;7.72;;;2.08;;
8564;SDS011;4320;51.498;6.556;2023-12-22T12:12:31;6.05;;;1.92;;
8564;SDS011;4320;51.498;6.556;2023-12-22T12:14:59;3.05;;;1.83;;
8564;SDS011;4320;51.498;6.556;2023-12-22T12:17:41;3.70;;;1.95;;
8564;SDS011;4320;51.498;6.556;2023-12-22T12:20:08;3.55;;;1.58;;
8564;SDS011;4320;51.498;6.556;2023-12-22T12:22:36;4.63;;;2.03;;
8564;SDS011;4320;51.498;6.556;2023-12-22T12:25:09;8.52;;;2.38;;
8564;SDS011;4320;51.498;6.556;2023-12-22T12:27:36;4.47;;;2.00;;
8564;SDS011;4320;51.498;6.556;2023-12-22T12:30:12;7.20;;;1.92;;
8564;SDS011;4320;51.498;6.556;2023-12-22T12:32:42;6.95;;;2.05;;
8564;SDS011;4320;51.498;6.556;2023-12-22T12:35:10;6.82;;;1.70;;
8564;SDS011;4320;51.498;6.556;2023-12-22T12:37:35;2.35;;;1.40;;
8564;SDS011;4320;51.498;6.556;2023-12-22T12:40:02;3.47;;;1.60;;
8564;SDS011;4320;51.498;6.556;2023-12-22T12:42:29;4.03;;;2.05;;
8564;SDS011;4320;51.498;6.556;2023-12-22T12:44:56;7.38;;;2.10;;
8564;SDS011;4320;51.498;6.556;2023-12-22T12:47:22;6.10;;;2.42;;
8564;SDS011;4320;51.498;6.556;2023-12-22T12:49:56;3.53;;;1.92;;
8564;SDS011;4320;51.498;6.556;2023-12-22T12:52:23;7.47;;;2.63;;
8564;SDS011;4320;51.498;6.556;2023-12-22T12:54:50;4.82;;;2.30;;
8564;SDS011;4320;51.498;6.556;2023-12-22T12:57:16;4.60;;;1.90;;
8564;SDS011;4320;51.498;6.556;2023-12-22T12:59:46;3.13;;;1.92;;
8564;SDS011;4320;51.498;6.556;2023-12-22T13:02:12;4.88;;;2.38;;
8564;SDS011;4320;51.498;6.556;2023-12-22T13:04:39;8.00;;;3.03;;
8564;SDS011;4320;51.498;6.556;2023-12-22T13:07:04;6.28;;;2.83;;
8564;SDS011;4320;51.498;6.556;2023-12-22T13:09:33;4.20;;;1.90;;
8564;SDS011;4320;51.498;6.556;2023-12-22T13:11:59;4.90;;;2.20;;
8564;SDS011;4320;51.498;6.556;2023-12-22T13:14:25;4.55;;;2.22;;
8564;SDS011;4320;51.498;6.556;2023-12-22T13:16:55;3.50;;;1.85;;
8564;SDS011;4320;51.498;6.556;2023-12-22T13:19:25;8.85;;;2.95;;
8564;SDS011;4320;51.498;6.556;2023-12-22T13:21:52;5.28;;;2.38;;
8564;SDS011;4320;51.498;6.556;2023-12-22T13:24:18;5.03;;;2.33;;
8564;SDS011;4320;51.498;6.556;2023-12-22T13:26:44;2.53;;;2.15;;
8564;SDS011;4320;51.498;6.556;2023-12-22T13:29:11;6.90;;;2.88;;
8564;SDS011;4320;51.498;6.556;2023-12-22T13:31:38;6.38;;;2.55;;
8564;SDS011;4320;51.498;6.556;2023-12-22T13:34:14;3.85;;;2.17;;
8564;SDS011;4320;51.498;6.556;2023-12-22T13:36:40;2.60;;;2.08;;
8564;SDS011;4320;51.498;6.556;2023-12-22T13:39:08;3.92;;;2.17;;
8564;SDS011;4320;51.498;6.556;2023-12-22T13:41:35;7.05;;;2.47;;
8564;SDS011;4320;51.498;6.556;2023-12-22T13:44:07;5.15;;;2.50;;
8564;SDS011;4320;51.498;6.556;2023-12-22T13:46:33;10.60;;;2.97;;
8564;SDS011;4320;51.498;6.556;2023-12-22T13:49:00;5.88;;;3.33;;
8564;SDS011;4320;51.498;6.556;2023-12-22T13:51:27;8.45;;;2.45;;
8564;SDS011;4320;51.498;6.556;2023-12-22T13:54:09;10.10;;;4.43;;
8564;SDS011;4320;51.498;6.556;2023-12-22T13:56:35;6.63;;;2.85;;
8564;SDS011;4320;51.498;6.556;2023-12-22T13:59:02;3.78;;;2.22;;
8564;SDS011;4320;51.498;6.556;2023-12-22T14:01:29;7.88;;;2.67;;
8564;SDS011;4320;51.498;6.556;2023-12-22T14:03:55;4.50;;;2.17;;
8564;SDS011;4320;51.498;6.556;2023-12-22T14:06:23;5.80;;;2.00;;
8564;SDS011;4320;51.498;6.556;2023-12-22T14:08:49;4.55;;;1.85;;
8564;SDS011;4320;51.498;6.556;2023-12-22T14:11:15;6.13;;;1.90;;
8564;SDS011;4320;51.498;6.556;2023-12-22T14:13:40;4.53;;;1.90;;
8564;SDS011;4320;51.498;6.556;2023-12-22T14:16:06;5.47;;;1.55;;
8564;SDS011;4320;51.498;6.556;2023-12-22T14:18:32;3.67;;;2.00;;
8564;SDS011;4320;51.498;6.556;2023-12-22T14:20:58;9.32;;;2.20;;
8564;SDS011;4320;51.498;6.556;2023-12-22T14:23:24;2.97;;;1.50;;
8564;SDS011;4320;51.498;6.556;2023-12-22T14:25:50;8.38;;;1.80;;
8564;SDS011;4320;51.498;6.556;2023-12-22T14:28:15;6.60;;;1.80;;
8564;SDS011;4320;51.498;6.556;2023-12-22T14:30:41;4.03;;;1.58;;
8564;SDS011;4320;51.498;6.556;2023-12-22T14:33:07;7.85;;;2.22;;
8564;SDS011;4320;51.498;6.556;2023-12-22T14:35:33;7.80;;;1.98;;
8564;SDS011;4320;51.498;6.556;2023-12-22T14:37:58;5.10;;;1.80;;
8564;SDS011;4320;51.498;6.556;2023-12-22T14:40:24;4.90;;;1.95;;
8564;SDS011;4320;51.498;6.556;2023-12-22T14:42:50;4.03;;;2.22;;
8564;SDS011;4320;51.498;6.556;2023-12-22T14:45:15;8.25;;;2.33;;
8564;SDS011;4320;51.498;6.556;2023-12-22T14:47:41;6.32;;;2.00;;
8564;SDS011;4320;51.498;6.556;2023-12-22T14:50:07;5.75;;;1.90;;
8564;SDS011;4320;51.498;6.556;2023-12-22T14:52:33;5.85;;;1.52;;
8564;SDS011;4320;51.498;6.556;2023-12-22T14:54:59;5.68;;;2.60;;
8564;SDS011;4320;51.498;6.556;2023-12-22T14:57:25;9.13;;;3.47;;
8564;SDS011;4320;51.498;6.556;2023-12-22T14:59:51;5.60;;;2.13;;
8564;SDS011;4320;51.498;6.556;2023-12-22T15:02:17;3.40;;;1.67;;
8564;SDS011;4320;51.498;6.556;2023-12-22T15:04:44;7.35;;;2.50;;
8564;SDS011;4320;51.498;6.556;2023-12-22T15:07:09;2.60;;;1.77;;
8564;SDS011;4320;51.498;6.556;2023-12-22T15:09:39;7.43;;;1.88;;
8564;SDS011;4320;51.498;6.556;2023-12-22T15:12:04;6.40;;;2.38;;
8564;SDS011;4320;51.498;6.556;2023-12-22T15:14:30;8.05;;;2.78;;
8564;SDS011;4320;51.498;6.556;2023-12-22T15:16:56;8.73;;;2.40;;
8564;SDS011;4320;51.498;6.556;2023-12-22T15:19:21;7.78;;;2.75;;